Time;durP1;ratioP1;P1;durP2;ratioP2;P2;SDS_P1;SDS_P2;PMS_P1;PMS_P2;Temp;Humidity;BMP_temperature;BMP_pressure;BME280_temperature;BME280_humidity;BME280_pressure;Samples;Min_cycle;Max_cycle;Signal;HPM_P1;HPM_P2
2021/06/16 00:00:19;;;;;;;7.13;5.87;;;;;;;18.59;63.50;99469.34;4999073;28;20226;-85
2021/06/16 00:02:46;;;;;;;7.53;5.80;;;;;;;18.52;63.62;99468.81;4982908;28;20358;-82
2021/06/16 00:05:17;;;;;;;6.40;5.87;;;;;;;18.51;63.61;99466.38;4999525;28;20382;-80
2021/06/16 00:07:44;;;;;;;6.13;5.53;;;;;;;18.51;64.03;99466.38;4999765;28;20231;-86
2021/06/16 00:10:12;;;;;;;7.53;6.10;;;;;;;18.43;64.32;99468.53;4982786;28;20584;-84
2021/06/16 00:12:39;;;;;;;6.87;6.17;;;;;;;18.26;65.01;99459.09;4983654;28;20258;-80
2021/06/16 00:15:28;;;;;;;7.37;6.33;;;;;;;18.24;64.97;99466.69;4999525;28;20231;-80
2021/06/16 00:17:54;;;;;;;7.73;5.90;;;;;;;18.23;64.77;99470.47;4999245;28;20295;-83
2021/06/16 00:20:22;;;;;;;7.70;5.60;;;;;;;18.20;64.64;99469.13;4982808;28;20316;-86
2021/06/16 00:22:49;;;;;;;7.40;5.43;;;;;;;18.18;64.38;99473.19;4999399;28;20255;-85
2021/06/16 00:25:16;;;;;;;7.03;6.33;;;;;;;18.14;64.56;99477.53;4999443;28;20310;-85
2021/06/16 00:27:43;;;;;;;9.23;6.20;;;;;;;18.12;64.75;99485.94;4982705;28;20247;-83
2021/06/16 00:30:11;;;;;;;6.40;5.80;;;;;;;18.04;65.32;99486.50;4982659;28;20603;-84
2021/06/16 00:32:39;;;;;;;9.13;6.20;;;;;;;17.96;65.31;99473.50;4983460;28;20686;-83
2021/06/16 00:35:06;;;;;;;9.23;6.10;;;;;;;17.95;65.59;99478.09;4982924;28;20250;-81
2021/06/16 00:37:36;;;;;;;6.90;6.07;;;;;;;17.93;65.52;99480.25;4982724;28;20300;-80
2021/06/16 00:40:07;;;;;;;6.27;5.67;;;;;;;17.84;65.44;99479.16;4999016;28;20251;-82
2021/06/16 00:42:35;;;;;;;7.13;6.43;;;;;;;17.91;65.25;99490.56;4982662;28;20330;-84
2021/06/16 00:45:04;;;;;;;6.63;5.53;;;;;;;17.86;65.22;99479.72;4999002;28;20223;-84
2021/06/16 00:47:31;;;;;;;7.03;6.00;;;;;;;17.82;65.36;99486.78;4999023;28;20258;-83
2021/06/16 00:49:57;;;;;;;7.53;5.97;;;;;;;17.83;65.19;99482.97;4982502;28;20356;-83
2021/06/16 00:52:24;;;;;;;7.63;6.00;;;;;;;17.77;65.27;99484.06;5014395;28;20227;-86
2021/06/16 00:54:51;;;;;;;7.70;6.03;;;;;;;17.73;65.38;99479.44;4998236;28;20286;-80
2021/06/16 00:57:18;;;;;;;7.00;6.10;;;;;;;17.73;65.36;99479.44;5015742;28;20230;-81
2021/06/16 01:00:09;;;;;;;6.37;5.77;;;;;;;17.79;65.80;99491.91;4997998;28;20532;-79
2021/06/16 01:03:15;;;;;;;7.83;6.10;;;;;;;17.79;65.67;99489.19;4997614;28;20234;-82
2021/06/16 01:05:49;;;;;;;7.37;6.10;;;;;;;17.80;65.60;99491.63;4976986;28;20236;-83
2021/06/16 01:08:25;;;;;;;6.77;5.90;;;;;;;17.74;65.45;99487.28;4998218;28;20320;-83
2021/06/16 01:10:53;;;;;;;9.03;6.10;;;;;;;17.80;65.32;99497.06;4998829;28;20222;-85
2021/06/16 01:13:29;;;;;;;7.30;6.13;;;;;;;17.67;65.77;99488.66;4998118;28;20234;-85
2021/06/16 01:16:07;;;;;;;7.03;6.23;;;;;;;17.74;65.82;99502.72;4998078;28;20257;-86
2021/06/16 01:18:46;;;;;;;8.57;6.00;;;;;;;17.68;65.54;99488.38;4998420;28;20230;-86
2021/06/16 01:21:13;;;;;;;6.77;6.07;;;;;;;17.71;65.61;99490.53;4998294;28;20239;-84
2021/06/16 01:23:49;;;;;;;7.37;6.23;;;;;;;17.70;65.76;99482.69;4998461;28;20234;-80
2021/06/16 01:26:35;;;;;;;7.83;6.10;;;;;;;17.74;65.79;99483.75;4997520;28;20234;-82
2021/06/16 01:29:07;;;;;;;6.27;5.67;;;;;;;17.72;66.24;99489.47;5015380;28;20253;-87
2021/06/16 01:31:34;;;;;;;7.57;6.10;;;;;;;17.68;66.13;99487.56;4982239;28;20318;-86
2021/06/16 01:34:02;;;;;;;6.63;6.03;;;;;;;17.70;66.19;99475.38;4997655;28;20273;-87
2021/06/16 01:36:29;;;;;;;7.17;6.47;;;;;;;17.76;66.26;99478.91;4997876;28;20705;-80
2021/06/16 01:38:56;;;;;;;6.23;5.67;;;;;;;17.72;66.54;99475.09;4998231;28;20227;-81
2021/06/16 01:41:24;;;;;;;7.07;5.93;;;;;;;17.72;66.62;99477.81;4997724;28;20682;-86
2021/06/16 01:43:53;;;;;;;6.20;5.60;;;;;;;17.63;66.87;99474.00;4997959;28;20241;-83
2021/06/16 01:46:21;;;;;;;6.30;5.70;;;;;;;17.59;66.92;99471.00;4997773;28;20231;-79
2021/06/16 01:48:48;;;;;;;6.93;6.23;;;;;;;17.58;66.95;99478.34;4998355;28;20222;-81
2021/06/16 01:51:15;;;;;;;6.90;6.10;;;;;;;17.57;66.88;99473.97;4998013;28;20227;-86
2021/06/16 01:53:42;;;;;;;6.57;5.93;;;;;;;17.59;67.11;99481.84;4998153;28;20286;-83
2021/06/16 01:56:09;;;;;;;7.10;6.40;;;;;;;17.60;67.14;99480.75;4997365;28;20590;-79
2021/06/16 01:58:36;;;;;;;7.57;6.10;;;;;;;17.51;67.60;99485.88;4997997;28;20618;-84
2021/06/16 02:01:04;;;;;;;6.70;5.67;;;;;;;17.46;67.80;99485.84;4997928;28;20717;-81
2021/06/16 02:03:31;;;;;;;6.77;6.00;;;;;;;17.39;67.82;99476.38;4978507;28;20235;-79
2021/06/16 02:05:59;;;;;;;9.93;6.50;;;;;;;17.39;67.93;99473.66;4995696;28;20259;-87
2021/06/16 02:08:29;;;;;;;7.10;6.20;;;;;;;17.33;68.37;99472.84;4994174;28;20621;-81
2021/06/16 02:10:56;;;;;;;6.67;6.00;;;;;;;17.35;68.55;99486.94;4994785;28;20236;-79
2021/06/16 02:13:27;;;;;;;10.43;6.83;;;;;;;17.34;68.56;99487.19;4978320;28;20235;-85
2021/06/16 02:16:00;;;;;;;7.07;5.93;;;;;;;17.15;68.90;99454.38;4978479;28;20227;-82
2021/06/16 02:18:30;;;;;;;9.77;6.40;;;;;;;17.21;68.78;99457.91;4994208;28;20561;-82
2021/06/16 02:20:57;;;;;;;8.17;6.30;;;;;;;17.20;68.95;99459.81;4978436;28;20597;-83
2021/06/16 02:23:24;;;;;;;7.07;6.37;;;;;;;17.21;68.92;99457.91;4994388;28;20262;-81
2021/06/16 02:25:50;;;;;;;7.30;6.57;;;;;;;17.12;69.12;99446.81;4996148;28;20227;-80
2021/06/16 02:28:17;;;;;;;6.80;6.10;;;;;;;17.13;69.41;99446.53;4981672;28;20711;-85
2021/06/16 02:30:44;;;;;;;6.97;6.37;;;;;;;17.14;69.49;99450.03;4981968;28;20307;-83
2021/06/16 02:33:11;;;;;;;7.63;6.50;;;;;;;17.03;69.69;99441.06;4998050;28;20235;-86
2021/06/16 02:35:37;;;;;;;6.90;6.30;;;;;;;16.94;69.65;99436.44;4997994;28;20227;-82
2021/06/16 02:38:17;;;;;;;7.10;6.40;;;;;;;17.10;69.69;99460.59;4997417;28;20231;-84
2021/06/16 02:40:44;;;;;;;6.87;6.27;;;;;;;17.07;69.46;99458.44;4982076;28;20227;-85
2021/06/16 02:43:11;;;;;;;7.20;6.57;;;;;;;17.02;69.38;99455.72;4997864;28;20640;-85
2021/06/16 02:45:38;;;;;;;9.60;6.43;;;;;;;17.06;69.15;99462.22;4981717;28;20613;-86
2021/06/16 02:48:06;;;;;;;7.10;6.40;;;;;;;17.10;68.81;99467.91;4997570;28;20286;-87
2021/06/16 02:50:36;;;;;;;7.30;6.60;;;;;;;17.02;68.82;99458.41;4981703;28;20592;-80
2021/06/16 02:53:08;;;;;;;9.47;6.17;;;;;;;17.07;68.90;99458.44;4981534;28;20674;-86
2021/06/16 02:55:38;;;;;;;8.53;6.00;;;;;;;17.12;68.96;99473.88;4997915;28;20231;-81
2021/06/16 02:58:06;;;;;;;7.30;5.63;;;;;;;17.16;68.75;99469.56;4997099;28;21202;-86
2021/06/16 03:00:33;;;;;;;9.07;6.57;;;;;;;17.11;68.50;99470.34;4997353;28;20246;-85
2021/06/16 03:03:01;;;;;;;6.50;5.90;;;;;;;17.22;67.94;99486.63;4981521;28;20258;-79
2021/06/16 03:05:28;;;;;;;6.97;6.30;;;;;;;17.18;68.08;99484.44;5000933;28;20270;-84
2021/06/16 03:07:57;;;;;;;6.80;6.20;;;;;;;17.24;67.76;99489.88;5000690;28;20223;-87
2021/06/16 03:10:25;;;;;;;7.93;6.07;;;;;;;17.26;67.71;99493.13;5000231;28;20234;-85
2021/06/16 03:12:53;;;;;;;6.90;6.20;;;;;;;17.37;67.67;99494.78;5000618;28;20325;-86
2021/06/16 03:15:21;;;;;;;7.93;6.00;;;;;;;17.36;67.74;99482.31;5000678;28;20694;-86
2021/06/16 03:17:48;;;;;;;7.20;6.50;;;;;;;17.36;67.71;99466.06;4984344;28;20281;-84
2021/06/16 03:20:18;;;;;;;6.60;5.93;;;;;;;17.50;67.84;99483.41;5000190;28;20246;-85
2021/06/16 03:22:45;;;;;;;6.50;5.93;;;;;;;17.54;67.81;99482.63;5000605;28;20315;-81
2021/06/16 03:25:16;;;;;;;6.57;5.97;;;;;;;17.52;67.62;99482.09;5000618;28;20233;-85
2021/06/16 03:27:43;;;;;;;6.67;5.97;;;;;;;17.64;67.57;99492.69;4984263;28;20313;-83
2021/06/16 03:30:11;;;;;;;7.40;6.70;;;;;;;17.63;67.15;99495.69;4999728;28;20254;-86
2021/06/16 03:32:39;;;;;;;6.63;6.03;;;;;;;17.59;67.00;99490.78;5000479;28;20230;-86
2021/06/16 03:35:06;;;;;;;7.80;6.97;;;;;;;17.64;66.71;99487.28;5000266;28;20235;-80
2021/06/16 03:37:33;;;;;;;7.23;6.23;;;;;;;17.66;66.59;99479.69;4999777;28;20629;-87
2021/06/16 03:40:00;;;;;;;7.13;6.40;;;;;;;17.75;66.86;99490.81;5000322;28;20222;-86
2021/06/16 03:42:27;;;;;;;6.43;5.83;;;;;;;17.77;66.94;99485.94;4999866;28;20285;-85
2021/06/16 03:44:55;;;;;;;6.67;6.10;;;;;;;17.92;66.87;99504.91;5000161;28;20227;-79
2021/06/16 03:47:23;;;;;;;7.00;6.40;;;;;;;17.97;66.44;99508.44;5000134;28;20397;-86
2021/06/16 03:49:51;;;;;;;6.50;5.90;;;;;;;18.00;65.99;99496.25;4999996;28;20254;-86
2021/06/16 03:52:18;;;;;;;6.43;5.83;;;;;;;18.15;65.77;99498.94;4999549;28;20246;-81
2021/06/16 03:54:46;;;;;;;6.67;5.97;;;;;;;18.31;65.50;99510.59;4999885;28;20227;-83
2021/06/16 03:57:14;;;;;;;6.57;5.97;;;;;;;18.42;65.07;99502.19;4984080;28;20261;-79
2021/06/16 03:59:41;;;;;;;7.07;5.97;;;;;;;18.58;64.45;99491.31;4983451;28;20237;-81
2021/06/16 04:02:08;;;;;;;7.17;6.47;;;;;;;18.94;63.85;99497.47;4983400;28;20234;-84
2021/06/16 04:04:35;;;;;;;6.80;6.10;;;;;;;19.64;61.68;99502.56;4999303;28;20273;-83
2021/06/16 04:07:02;;;;;;;6.37;5.77;;;;;;;20.53;58.30;99495.06;4999749;28;20354;-86
2021/06/16 04:09:30;;;;;;;6.93;5.80;;;;;;;21.55;55.68;99502.81;4999474;28;20575;-80
2021/06/16 04:11:57;;;;;;;6.87;6.17;;;;;;;22.12;53.37;99496.22;4983599;28;20593;-86
2021/06/16 04:14:24;;;;;;;6.07;5.33;;;;;;;22.95;50.42;99496.09;4999009;28;20635;-83
2021/06/16 04:16:54;;;;;;;7.27;5.40;;;;;;;23.45;49.27;99491.50;4999459;28;20252;-83
2021/06/16 04:19:22;;;;;;;6.20;5.17;;;;;;;23.84;48.34;99504.56;4999377;28;20224;-83
2021/06/16 04:21:48;;;;;;;5.50;5.10;;;;;;;24.06;47.42;99498.28;4999385;28;20318;-83
2021/06/16 04:24:15;;;;;;;5.57;5.07;;;;;;;24.77;45.71;99502.75;4998814;28;20233;-85
2021/06/16 04:26:42;;;;;;;5.67;5.03;;;;;;;25.54;43.46;99502.19;4982820;28;20676;-84
2021/06/16 04:29:08;;;;;;;7.77;5.13;;;;;;;26.36;41.72;99520.44;4999032;28;20704;-85
2021/06/16 04:31:35;;;;;;;5.50;5.00;;;;;;;27.36;39.44;99580.38;4999154;28;20228;-84
2021/06/16 04:34:02;;;;;;;6.63;4.85;;;;;;;28.28;37.70;99628.06;4998245;28;20617;-82
2021/06/16 04:36:29;;;;;;;5.53;5.03;;;;;;;29.18;35.83;99615.19;4998719;28;20227;-83
2021/06/16 04:38:56;;;;;;;5.93;5.07;;;;;;;29.15;35.17;99533.13;4982715;28;20277;-84
2021/06/16 04:41:22;;;;;;;6.97;5.05;;;;;;;27.27;39.07;99505.34;4983067;28;20654;-84
2021/06/16 04:43:49;;;;;;;5.63;5.07;;;;;;;26.33;41.28;99510.06;4998878;28;20256;-84
2021/06/16 04:46:16;;;;;;;8.35;5.50;;;;;;;25.72;42.89;99516.72;4982412;28;20309;-83
2021/06/16 04:48:43;;;;;;;7.38;5.60;;;;;;;25.50;43.63;99511.34;4998596;28;20222;-79
2021/06/16 04:51:09;;;;;;;5.90;5.40;;;;;;;25.41;43.80;99506.66;4982477;28;20650;-82
2021/06/16 04:53:36;;;;;;;7.07;5.07;;;;;;;25.49;43.32;99510.53;4998850;28;20234;-80
2021/06/16 04:56:04;;;;;;;5.82;5.30;;;;;;;25.35;44.30;99512.59;4982087;28;20597;-81
2021/06/16 04:58:30;;;;;;;10.30;5.70;;;;;;;25.10;44.85;99508.69;4998603;28;20250;-84
2021/06/16 05:00:57;;;;;;;7.75;5.65;;;;;;;25.17;44.58;99519.97;4998485;28;20283;-82
2021/06/16 05:03:25;;;;;;;7.88;5.90;;;;;;;25.14;44.60;99522.56;4982262;28;20596;-84
2021/06/16 05:05:51;;;;;;;7.38;6.07;;;;;;;25.09;43.69;99518.03;4998681;28;20292;-84
2021/06/16 05:08:18;;;;;;;7.07;6.43;;;;;;;25.24;43.66;99525.00;4998169;28;20721;-84
2021/06/16 05:10:45;;;;;;;6.70;5.90;;;;;;;25.58;42.84;99518.78;4998542;28;20230;-83
2021/06/16 05:13:11;;;;;;;8.18;6.15;;;;;;;25.56;43.24;99521.06;4998352;28;20604;-84
2021/06/16 05:15:39;;;;;;;6.32;5.72;;;;;;;25.67;42.75;99520.41;4982387;28;20234;-84
2021/06/16 05:18:08;;;;;;;6.65;5.68;;;;;;;25.50;42.75;99525.88;4997880;28;20601;-83
2021/06/16 05:20:35;;;;;;;6.68;5.50;;;;;;;25.56;43.25;99527.38;4998734;28;20257;-85
2021/06/16 05:23:03;;;;;;;6.50;5.53;;;;;;;25.52;43.27;99520.88;4998091;28;20245;-80
2021/06/16 05:25:30;;;;;;;6.03;5.40;;;;;;;25.67;42.88;99522.34;4998416;28;20313;-80
2021/06/16 05:27:56;;;;;;;7.15;5.05;;;;;;;25.70;42.68;99529.97;4998189;28;20712;-84
2021/06/16 05:30:23;;;;;;;6.10;5.50;;;;;;;25.46;43.31;99530.38;4997640;28;20297;-84
2021/06/16 05:32:50;;;;;;;5.88;5.38;;;;;;;25.36;43.25;99525.19;4981958;28;20575;-80
2021/06/16 05:35:18;;;;;;;8.27;6.00;;;;;;;25.58;43.58;99540.75;4998159;28;20321;-80
2021/06/16 05:37:46;;;;;;;8.30;5.88;;;;;;;25.45;44.03;99537.00;4998275;28;20300;-84
2021/06/16 05:40:15;;;;;;;7.10;6.35;;;;;;;25.23;43.83;99542.59;4997425;28;20639;-82
2021/06/16 05:42:42;;;;;;;9.57;6.70;;;;;;;25.01;45.21;99548.94;4982215;28;20224;-83
2021/06/16 05:45:09;;;;;;;8.98;6.57;;;;;;;24.92;44.32;99543.44;4997951;28;20276;-84
2021/06/16 05:47:36;;;;;;;8.02;6.60;;;;;;;24.56;45.83;99535.34;4981518;28;20285;-83
2021/06/16 05:50:04;;;;;;;7.88;7.13;;;;;;;24.56;45.72;99543.56;4997307;28;20668;-84
2021/06/16 05:52:31;;;;;;;7.30;6.60;;;;;;;24.27;47.32;99547.84;4981691;28;20285;-84
2021/06/16 05:54:58;;;;;;;7.88;7.00;;;;;;;24.44;47.77;99546.06;4997547;28;20326;-83
2021/06/16 05:57:24;;;;;;;8.60;7.18;;;;;;;24.40;47.70;99542.31;4997885;28;20284;-84
2021/06/16 05:59:51;;;;;;;7.32;6.63;;;;;;;24.74;46.06;99544.44;4981936;28;20255;-83
2021/06/16 06:02:18;;;;;;;8.13;6.80;;;;;;;24.64;46.67;99543.91;4985453;28;20233;-82
2021/06/16 06:04:44;;;;;;;8.48;7.60;;;;;;;24.40;47.31;99555.22;4994212;28;20582;-81
2021/06/16 06:07:11;;;;;;;8.35;6.80;;;;;;;24.73;46.61;99553.78;4985516;28;20304;-85
2021/06/16 06:09:38;;;;;;;9.70;6.57;;;;;;;25.15;45.65;99560.59;5001541;28;20360;-83
2021/06/16 06:12:04;;;;;;;7.82;7.05;;;;;;;25.26;45.33;99552.91;4999376;28;20232;-82
2021/06/16 06:14:31;;;;;;;9.18;7.47;;;;;;;25.26;44.64;99558.38;4985181;28;20277;-85
2021/06/16 06:16:58;;;;;;;7.93;6.80;;;;;;;25.54;43.89;99550.72;5018603;28;20227;-78
2021/06/16 06:19:25;;;;;;;7.97;6.93;;;;;;;25.35;43.43;99545.50;5018553;28;20672;-79
2021/06/16 06:21:52;;;;;;;8.07;6.80;;;;;;;25.41;43.75;99544.25;5001148;28;20263;-80
2021/06/16 06:24:18;;;;;;;11.23;7.10;;;;;;;25.41;43.97;99546.97;4997441;28;20219;-83
2021/06/16 06:26:45;;;;;;;8.07;7.30;;;;;;;25.26;44.15;99550.97;4982004;28;20287;-81
2021/06/16 06:29:12;;;;;;;10.80;8.35;;;;;;;25.11;44.80;99547.84;5000869;28;20743;-79
2021/06/16 06:31:38;;;;;;;8.13;7.22;;;;;;;25.08;45.64;99557.53;5018369;28;20281;-78
2021/06/16 06:34:05;;;;;;;7.85;7.07;;;;;;;25.22;44.00;99554.66;4984248;28;20256;-78
2021/06/16 06:36:32;;;;;;;7.32;6.63;;;;;;;25.76;43.18;99559.66;5001070;28;20262;-85
2021/06/16 06:38:59;;;;;;;8.52;7.00;;;;;;;25.54;42.86;99553.44;4981467;28;20311;-79
2021/06/16 06:41:26;;;;;;;7.20;6.50;;;;;;;25.54;43.12;99553.44;4981475;28;20254;-85
2021/06/16 06:43:53;;;;;;;8.52;6.40;;;;;;;25.60;42.41;99550.28;4997565;28;20255;-83
2021/06/16 06:46:19;;;;;;;9.77;5.85;;;;;;;25.74;40.95;99553.69;4980650;28;20707;-84
2021/06/16 06:48:46;;;;;;;7.65;5.43;;;;;;;25.83;40.47;99553.69;4997448;28;20227;-79
2021/06/16 06:51:13;;;;;;;7.22;5.35;;;;;;;25.60;39.87;99549.47;4979793;28;20241;-84
2021/06/16 06:53:40;;;;;;;7.88;5.40;;;;;;;25.80;40.68;99563.34;4997011;28;20647;-84
2021/06/16 06:56:06;;;;;;;6.50;5.70;;;;;;;25.81;39.93;99550.44;4996678;28;20247;-80
2021/06/16 06:58:33;;;;;;;6.75;5.05;;;;;;;25.99;39.35;99543.06;4965070;28;20327;-82
2021/06/16 07:01:00;;;;;;;6.45;5.60;;;;;;;26.21;39.20;99531.91;4981042;28;20220;-83
2021/06/16 07:03:27;;;;;;;8.30;5.22;;;;;;;26.44;38.52;99546.25;4980812;28;20343;-81
2021/06/16 07:05:54;;;;;;;9.48;5.32;;;;;;;26.58;39.24;99549.63;4997064;28;20261;-79
2021/06/16 07:08:21;;;;;;;8.88;5.85;;;;;;;26.73;38.68;99547.16;4997475;28;20651;-85
2021/06/16 07:10:48;;;;;;;7.82;4.90;;;;;;;26.45;37.82;99534.13;4996371;28;20578;-82
2021/06/16 07:13:14;;;;;;;9.85;5.72;;;;;;;26.70;39.08;99538.75;4982411;28;20316;-79
2021/06/16 07:16:01;;;;;;;7.75;4.65;;;;;;;26.31;38.18;99542.56;4988899;28;20507;-79
2021/06/16 07:18:28;;;;;;;7.95;4.90;;;;;;;26.51;37.07;99528.13;4983065;28;20256;-81
2021/06/16 07:20:55;;;;;;;6.45;4.72;;;;;;;26.60;37.00;99539.91;4983194;28;20572;-80
2021/06/16 07:23:21;;;;;;;5.25;4.50;;;;;;;26.42;36.52;99543.00;4999192;28;20337;-82
2021/06/16 07:25:48;;;;;;;6.65;4.50;;;;;;;26.48;34.89;99541.72;5016694;28;20241;-81
2021/06/16 07:28:14;;;;;;;4.50;4.10;;;;;;;26.86;34.89;99536.31;4982796;28;20542;-78
2021/06/16 07:30:41;;;;;;;8.38;5.50;;;;;;;26.70;36.89;99544.22;5016491;28;20227;-79
2021/06/16 07:33:10;;;;;;;6.82;4.70;;;;;;;26.71;37.15;99532.91;4983814;28;20237;-79
2021/06/16 07:35:38;;;;;;;5.70;3.90;;;;;;;26.74;36.45;99529.50;4999795;28;20326;-82
2021/06/16 07:38:05;;;;;;;7.45;4.65;;;;;;;27.17;35.19;99540.34;4999636;28;20247;-78
2021/06/16 07:40:32;;;;;;;5.43;4.10;;;;;;;27.46;35.10;99542.31;5017098;28;20242;-84
2021/06/16 07:42:59;;;;;;;7.50;4.65;;;;;;;27.25;35.50;99538.69;4983294;28;20275;-83
2021/06/16 07:45:26;;;;;;;6.40;4.20;;;;;;;27.24;34.46;99534.34;4983690;28;20612;-91
2021/06/16 07:47:52;;;;;;;4.38;3.90;;;;;;;27.10;34.18;99531.03;4999551;28;20574;-82
2021/06/16 07:50:19;;;;;;;7.10;4.18;;;;;;;27.03;32.88;99527.97;4982385;28;20704;-79
2021/06/16 07:52:46;;;;;;;3.95;3.40;;;;;;;27.23;32.77;99546.47;4982493;28;20571;-80
2021/06/16 07:55:13;;;;;;;4.97;3.90;;;;;;;27.21;32.71;99532.25;5013221;28;20304;-79
2021/06/16 07:57:40;;;;;;;5.15;3.70;;;;;;;27.53;32.95;99541.78;4996013;28;20339;-78
2021/06/16 08:00:07;;;;;;;4.68;3.70;;;;;;;27.55;32.37;99526.56;4997862;28;20702;-81
2021/06/16 08:02:39;;;;;;;4.53;3.35;;;;;;;27.67;31.97;99542.34;4999506;28;20230;-82
2021/06/16 08:05:09;;;;;;;7.43;3.85;;;;;;;27.88;30.96;99537.66;4979508;28;20247;-79
2021/06/16 08:07:36;;;;;;;4.85;3.33;;;;;;;28.12;31.38;99538.94;4979266;28;20234;-81
2021/06/16 08:10:03;;;;;;;5.07;3.67;;;;;;;27.86;31.87;99539.94;4995951;28;20261;-83
2021/06/16 08:12:29;;;;;;;4.68;3.65;;;;;;;27.93;31.85;99533.91;4970845;28;20307;-79
2021/06/16 08:14:56;;;;;;;4.93;3.80;;;;;;;28.02;31.57;99537.38;4982179;28;20226;-81
2021/06/16 08:17:23;;;;;;;4.43;3.72;;;;;;;28.28;30.19;99545.41;4994966;28;20231;-81
2021/06/16 08:19:50;;;;;;;4.68;3.80;;;;;;;28.31;30.63;99537.31;4994632;28;20273;-80
2021/06/16 08:22:18;;;;;;;4.78;3.63;;;;;;;28.46;31.30;99530.34;4978431;28;20261;-82
2021/06/16 08:24:45;;;;;;;4.85;3.80;;;;;;;28.42;31.54;99538.47;4994502;28;20230;-81
2021/06/16 08:27:11;;;;;;;5.15;3.60;;;;;;;28.60;30.85;99541.06;4995897;28;20265;-80
2021/06/16 08:29:38;;;;;;;5.38;3.95;;;;;;;28.48;30.26;99547.34;4994841;28;20286;-80
2021/06/16 08:32:06;;;;;;;5.90;3.97;;;;;;;28.75;30.26;99543.97;4994149;28;20246;-82
2021/06/16 08:34:32;;;;;;;7.13;3.75;;;;;;;28.67;30.27;99542.09;4994331;28;20681;-79
2021/06/16 08:36:59;;;;;;;6.35;3.85;;;;;;;28.61;29.94;99551.72;4994742;28;20251;-83
2021/06/16 08:39:26;;;;;;;4.50;3.80;;;;;;;28.97;30.13;99544.72;4994710;28;20322;-81
2021/06/16 08:41:53;;;;;;;4.65;3.67;;;;;;;29.20;30.33;99538.41;4994619;28;20714;-80
2021/06/16 08:44:19;;;;;;;5.07;4.25;;;;;;;29.30;29.82;99540.69;4994976;28;20258;-83
2021/06/16 08:46:47;;;;;;;6.47;3.90;;;;;;;29.16;30.21;99531.94;4994576;28;20278;-83
2021/06/16 08:49:14;;;;;;;8.65;4.13;;;;;;;29.21;30.27;99547.47;4978472;28;20228;-82
2021/06/16 08:51:41;;;;;;;4.38;3.88;;;;;;;29.17;30.24;99538.28;4978360;28;20231;-81
2021/06/16 08:54:09;;;;;;;6.10;4.20;;;;;;;29.16;30.29;99537.47;4994184;28;20894;-81
2021/06/16 08:56:36;;;;;;;5.50;4.00;;;;;;;29.33;29.76;99533.72;4978331;28;20227;-84
2021/06/16 08:59:03;;;;;;;4.43;4.03;;;;;;;29.22;29.72;99538.03;4994229;28;20235;-81
2021/06/16 09:01:30;;;;;;;4.70;3.95;;;;;;;29.02;30.29;99534.28;4978222;28;20227;-81
2021/06/16 09:03:57;;;;;;;6.97;4.43;;;;;;;28.92;30.27;99536.66;4982247;28;20235;-83
2021/06/16 09:06:29;;;;;;;4.97;4.10;;;;;;;28.76;30.45;99531.00;4977749;28;20310;-82
2021/06/16 09:09:05;;;;;;;4.43;3.72;;;;;;;29.04;30.38;99537.47;4978207;28;20258;-85
2021/06/16 09:11:43;;;;;;;5.60;3.70;;;;;;;29.27;30.01;99546.09;4977881;28;20673;-84
2021/06/16 09:14:22;;;;;;;5.50;3.80;;;;;;;29.38;29.03;99536.22;4994918;28;20235;-81
2021/06/16 09:16:52;;;;;;;8.30;4.30;;;;;;;29.28;29.36;99543.00;4993959;28;20277;-80
2021/06/16 09:19:21;;;;;;;4.85;4.35;;;;;;;29.58;29.56;99551.81;4972376;28;20583;-85
2021/06/16 09:21:50;;;;;;;4.68;3.90;;;;;;;29.77;29.11;99548.47;4974619;28;20252;-82
2021/06/16 09:24:17;;;;;;;4.45;3.92;;;;;;;29.50;28.47;99552.75;4974024;28;20332;-82
2021/06/16 09:26:44;;;;;;;6.78;3.88;;;;;;;29.61;28.21;99536.53;4974634;28;20228;-81
2021/06/16 09:29:11;;;;;;;5.68;4.20;;;;;;;29.30;28.79;99526.91;4958681;28;20243;-84
2021/06/16 09:31:44;;;;;;;4.10;3.45;;;;;;;28.95;28.62;99547.81;4958379;28;20624;-83
2021/06/16 09:34:16;;;;;;;5.00;3.72;;;;;;;29.07;28.47;99550.56;4973912;28;20236;-84
2021/06/16 09:36:54;;;;;;;4.20;3.80;;;;;;;28.96;28.97;99538.38;4957960;28;20306;-83
2021/06/16 09:39:25;;;;;;;6.50;3.92;;;;;;;29.15;27.97;99544.16;4974422;28;20587;-81
2021/06/16 09:41:54;;;;;;;4.00;3.63;;;;;;;29.45;28.48;99547.47;4974485;28;20278;-84
2021/06/16 09:45:02;;;;;;;6.47;3.53;;;;;;;29.26;27.95;99547.22;4957783;28;20263;-81
2021/06/16 09:47:29;;;;;;;4.45;3.75;;;;;;;29.25;28.47;99535.41;4916092;29;20284;-82
2021/06/16 09:50:00;;;;;;;4.45;3.30;;;;;;;29.51;28.34;99534.25;4918762;29;20641;-85
2021/06/16 09:52:41;;;;;;;4.65;3.03;;;;;;;29.58;27.69;99545.53;4931968;28;20536;-84
2021/06/16 09:55:20;;;;;;;5.90;3.28;;;;;;;29.60;27.28;99535.75;4975029;28;20232;-84
2021/06/16 09:58:05;;;;;;;4.60;3.30;;;;;;;29.72;27.15;99537.69;4974952;28;20263;-81
2021/06/16 10:00:33;;;;;;;3.63;2.80;;;;;;;29.87;26.60;99533.34;4990684;28;20597;-82
2021/06/16 10:03:17;;;;;;;4.65;3.47;;;;;;;29.99;25.98;99527.84;4976214;28;20239;-85
2021/06/16 10:06:15;;;;;;;4.50;3.15;;;;;;;29.85;25.37;99530.97;4977889;28;20238;-83
2021/06/16 10:08:43;;;;;;;5.63;3.00;;;;;;;29.98;26.74;99524.28;4993758;28;20306;-82
2021/06/16 10:11:19;;;;;;;5.68;3.17;;;;;;;30.12;26.62;99527.44;4995908;28;20231;-80
2021/06/16 10:13:47;;;;;;;5.03;3.33;;;;;;;30.40;26.04;99523.84;4997815;28;20273;-81
2021/06/16 10:16:15;;;;;;;4.57;3.40;;;;;;;30.69;25.95;99526.25;4996660;28;20226;-83
2021/06/16 10:18:43;;;;;;;5.45;3.28;;;;;;;30.96;26.00;99530.91;4996838;28;20576;-81
2021/06/16 10:21:13;;;;;;;5.18;3.33;;;;;;;31.10;25.54;99532.44;4961784;28;20583;-81
2021/06/16 10:23:40;;;;;;;4.88;3.30;;;;;;;30.37;26.27;99528.13;4978045;28;20305;-80
2021/06/16 10:26:26;;;;;;;4.25;3.05;;;;;;;30.82;25.36;99536.06;4977509;28;20232;-81
2021/06/16 10:29:00;;;;;;;4.00;2.85;;;;;;;31.20;24.71;99529.13;4978145;28;20270;-82
2021/06/16 10:31:39;;;;;;;4.88;3.25;;;;;;;31.41;24.25;99529.59;4961872;28;20232;-80
2021/06/16 10:34:07;;;;;;;6.35;3.20;;;;;;;31.53;24.06;99525.94;4977572;28;20632;-81
2021/06/16 10:36:35;;;;;;;6.32;3.28;;;;;;;31.64;24.36;99533.31;4945849;28;20290;-81
2021/06/16 10:39:04;;;;;;;4.80;2.92;;;;;;;31.21;24.88;99525.19;4978494;28;20259;-83
2021/06/16 10:41:37;;;;;;;5.30;2.90;;;;;;;31.66;24.44;99530.22;4993871;28;20258;-84
2021/06/16 10:44:26;;;;;;;4.68;3.05;;;;;;;30.87;24.98;99527.50;4977283;28;20294;-82
2021/06/16 10:47:03;;;;;;;4.28;3.10;;;;;;;31.00;24.97;99517.13;4963531;28;20259;-81
2021/06/16 10:49:50;;;;;;;5.78;3.10;;;;;;;31.47;24.64;99519.88;4981277;28;20235;-82
2021/06/16 10:52:19;;;;;;;5.18;3.15;;;;;;;31.51;24.88;99509.66;4965227;28;20223;-81
2021/06/16 10:55:00;;;;;;;5.30;3.10;;;;;;;31.87;24.55;99514.03;4965144;28;20228;-80
2021/06/16 10:57:28;;;;;;;3.90;3.25;;;;;;;31.99;24.57;99510.31;4981092;28;20250;-81
2021/06/16 11:00:00;;;;;;;3.90;2.95;;;;;;;31.84;24.79;99504.50;4981271;28;20243;-80
2021/06/16 11:02:34;;;;;;;4.45;3.38;;;;;;;31.78;24.70;99505.13;4964907;28;20239;-81
2021/06/16 11:05:25;;;;;;;5.90;3.20;;;;;;;32.01;25.08;99508.78;4998130;28;20223;-80
2021/06/16 11:07:52;;;;;;;5.55;3.35;;;;;;;32.13;24.94;99496.78;4981411;28;20315;-80
2021/06/16 11:10:19;;;;;;;3.90;3.50;;;;;;;32.28;24.67;99496.69;4980354;28;20290;-80
2021/06/16 11:12:50;;;;;;;4.47;3.05;;;;;;;32.35;24.47;99490.47;4995909;28;20234;-81
2021/06/16 11:15:23;;;;;;;6.43;3.22;;;;;;;32.59;24.33;99498.44;5000223;28;20234;-80
2021/06/16 11:17:54;;;;;;;3.53;3.10;;;;;;;32.74;24.63;99494.78;5000387;28;20285;-81
2021/06/16 11:20:21;;;;;;;6.47;3.00;;;;;;;33.01;23.54;99500.34;4999813;28;20655;-80
2021/06/16 11:22:59;;;;;;;3.83;3.20;;;;;;;33.02;23.87;99491.69;5016546;28;20293;-81
2021/06/16 11:25:29;;;;;;;4.38;3.47;;;;;;;32.87;23.91;99492.63;5000220;28;20233;-81
2021/06/16 11:27:57;;;;;;;3.55;3.20;;;;;;;32.33;24.98;99490.06;5000525;28;20262;-81
2021/06/16 11:30:50;;;;;;;6.28;3.63;;;;;;;32.54;24.74;99492.41;4983458;28;20301;-80
2021/06/16 11:33:21;;;;;;;7.57;3.55;;;;;;;32.10;25.45;99490.00;5017359;28;20226;-82
2021/06/16 11:35:48;;;;;;;4.70;3.38;;;;;;;32.64;25.26;99481.53;4991922;28;20219;-82
2021/06/16 11:38:18;;;;;;;7.22;3.20;;;;;;;32.78;25.05;99480.16;4978772;28;20231;-81
2021/06/16 11:41:22;;;;;;;5.00;3.65;;;;;;;31.85;25.45;99478.41;4997373;28;20227;-82
2021/06/16 11:44:00;;;;;;;6.07;3.22;;;;;;;31.53;25.16;99484.41;4980630;28;20653;-82